sensor_id;sensor_type;location;lat;lon;timestamp;temperature;humidity
19968;DHT22;10145;49.152;9.282;2022-12-18T00:00:29;-8.20;99.90
19968;DHT22;10145;49.152;9.282;2022-12-18T00:02:55;-8.10;99.90
19968;DHT22;10145;49.152;9.282;2022-12-18T00:05:21;-8.30;99.90
19968;DHT22;10145;49.152;9.282;2022-12-18T00:07:46;-8.40;99.90
19968;DHT22;10145;49.152;9.282;2022-12-18T00:10:12;-8.40;99.90
19968;DHT22;10145;49.152;9.282;2022-12-18T00:12:37;-8.40;99.90
19968;DHT22;10145;49.152;9.282;2022-12-18T00:15:03;-8.40;99.90
19968;DHT22;10145;49.152;9.282;2022-12-18T00:17:30;-8.40;99.90
19968;DHT22;10145;49.152;9.282;2022-12-18T00:19:56;-8.40;99.90
19968;DHT22;10145;49.152;9.282;2022-12-18T00:22:21;-8.50;99.90
19968;DHT22;10145;49.152;9.282;2022-12-18T00:24:47;-8.50;99.90
19968;DHT22;10145;49.152;9.282;2022-12-18T00:27:12;-8.40;99.90
19968;DHT22;10145;49.152;9.282;2022-12-18T00:29:38;-8.30;99.90
19968;DHT22;10145;49.152;9.282;2022-12-18T05:01:22;-8.90;99.90
19968;DHT22;10145;49.152;9.282;2022-12-18T05:03:47;-9.00;99.90
19968;DHT22;10145;49.152;9.282;2022-12-18T05:06:13;-9.00;99.90
19968;DHT22;10145;49.152;9.282;2022-12-18T05:08:39;-8.90;99.90
19968;DHT22;10145;49.152;9.282;2022-12-18T05:11:10;-8.90;99.90
19968;DHT22;10145;49.152;9.282;2022-12-18T05:13:37;-8.70;99.90
19968;DHT22;10145;49.152;9.282;2022-12-18T05:16:03;-8.70;99.90
19968;DHT22;10145;49.152;9.282;2022-12-18T05:18:30;-8.80;99.90
19968;DHT22;10145;49.152;9.282;2022-12-18T05:20:55;-9.00;99.90
19968;DHT22;10145;49.152;9.282;2022-12-18T05:23:23;-9.00;99.90
19968;DHT22;10145;49.152;9.282;2022-12-18T05:26:00;-9.00;99.90
19968;DHT22;10145;49.152;9.282;2022-12-18T05:28:28;-9.00;99.90
19968;DHT22;10145;49.152;9.282;2022-12-18T05:30:56;-9.00;99.90
19968;DHT22;10145;49.152;9.282;2022-12-18T05:33:23;-9.00;99.90
19968;DHT22;10145;49.152;9.282;2022-12-18T05:35:54;-9.10;99.90
19968;DHT22;10145;49.152;9.282;2022-12-18T05:38:21;-9.10;99.90
19968;DHT22;10145;49.152;9.282;2022-12-18T05:40:48;-9.00;99.90
19968;DHT22;10145;49.152;9.282;2022-12-18T05:43:13;-9.00;99.90
19968;DHT22;10145;49.152;9.282;2022-12-18T05:45:40;-9.00;99.90
19968;DHT22;10145;49.152;9.282;2022-12-18T05:48:06;-9.00;99.90
19968;DHT22;10145;49.152;9.282;2022-12-18T05:50:40;-8.90;99.90
19968;DHT22;10145;49.152;9.282;2022-12-18T05:53:06;-9.00;99.90
19968;DHT22;10145;49.152;9.282;2022-12-18T05:55:34;-9.00;99.90
19968;DHT22;10145;49.152;9.282;2022-12-18T05:58:00;-9.10;99.90
19968;DHT22;10145;49.152;9.282;2022-12-18T06:00:25;-9.10;99.90
19968;DHT22;10145;49.152;9.282;2022-12-18T06:02:51;-9.20;99.90
19968;DHT22;10145;49.152;9.282;2022-12-18T06:05:17;-9.30;99.90
19968;DHT22;10145;49.152;9.282;2022-12-18T06:07:42;-9.30;99.90
19968;DHT22;10145;49.152;9.282;2022-12-18T06:10:08;-9.20;99.90
19968;DHT22;10145;49.152;9.282;2022-12-18T06:12:33;-9.10;99.90
19968;DHT22;10145;49.152;9.282;2022-12-18T06:14:59;-9.10;99.90
19968;DHT22;10145;49.152;9.282;2022-12-18T06:17:29;-9.10;99.90
19968;DHT22;10145;49.152;9.282;2022-12-18T06:19:55;-9.20;99.90
19968;DHT22;10145;49.152;9.282;2022-12-18T06:22:21;-9.10;99.90
19968;DHT22;10145;49.152;9.282;2022-12-18T06:24:46;-9.10;99.90
19968;DHT22;10145;49.152;9.282;2022-12-18T06:27:12;-9.20;99.90
19968;DHT22;10145;49.152;9.282;2022-12-18T06:29:38;-9.20;99.90
19968;DHT22;10145;49.152;9.282;2022-12-18T06:32:03;-9.10;99.90
19968;DHT22;10145;49.152;9.282;2022-12-18T06:34:29;-9.00;99.90
19968;DHT22;10145;49.152;9.282;2022-12-18T06:36:54;-9.00;99.90
19968;DHT22;10145;49.152;9.282;2022-12-18T06:39:20;-9.00;99.90
19968;DHT22;10145;49.152;9.282;2022-12-18T06:41:45;-8.90;99.90
19968;DHT22;10145;49.152;9.282;2022-12-18T06:44:11;-9.00;99.90
19968;DHT22;10145;49.152;9.282;2022-12-18T06:46:36;-9.10;99.90
19968;DHT22;10145;49.152;9.282;2022-12-18T06:49:03;-8.90;99.90
19968;DHT22;10145;49.152;9.282;2022-12-18T06:51:29;-8.90;99.90
19968;DHT22;10145;49.152;9.282;2022-12-18T06:53:54;-8.70;99.90
19968;DHT22;10145;49.152;9.282;2022-12-18T06:56:20;-8.90;99.90
19968;DHT22;10145;49.152;9.282;2022-12-18T06:58:45;-9.00;99.90
19968;DHT22;10145;49.152;9.282;2022-12-18T07:01:11;-9.00;99.90
19968;DHT22;10145;49.152;9.282;2022-12-18T07:03:38;-8.90;99.90
19968;DHT22;10145;49.152;9.282;2022-12-18T07:06:04;-9.10;99.90
19968;DHT22;10145;49.152;9.282;2022-12-18T07:08:30;-9.00;99.90
19968;DHT22;10145;49.152;9.282;2022-12-18T07:10:56;-9.10;99.90
19968;DHT22;10145;49.152;9.282;2022-12-18T07:13:22;-9.10;99.90
19968;DHT22;10145;49.152;9.282;2022-12-18T07:15:48;-9.10;99.90
19968;DHT22;10145;49.152;9.282;2022-12-18T07:18:13;-9.10;99.90
19968;DHT22;10145;49.152;9.282;2022-12-18T07:20:39;-9.10;99.90
19968;DHT22;10145;49.152;9.282;2022-12-18T07:23:05;-9.00;99.90
19968;DHT22;10145;49.152;9.282;2022-12-18T07:25:37;-8.90;99.90
19968;DHT22;10145;49.152;9.282;2022-12-18T07:28:03;-8.70;99.90
19968;DHT22;10145;49.152;9.282;2022-12-18T07:30:29;-8.80;99.90
19968;DHT22;10145;49.152;9.282;2022-12-18T07:32:55;-8.80;99.90
19968;DHT22;10145;49.152;9.282;2022-12-18T07:35:20;-8.70;99.90
19968;DHT22;10145;49.152;9.282;2022-12-18T07:37:46;-8.70;99.90
19968;DHT22;10145;49.152;9.282;2022-12-18T07:40:11;-8.70;99.90
19968;DHT22;10145;49.152;9.282;2022-12-18T07:42:37;-8.70;99.90
19968;DHT22;10145;49.152;9.282;2022-12-18T07:45:03;-8.70;99.90
19968;DHT22;10145;49.152;9.282;2022-12-18T07:47:30;-8.70;99.90
19968;DHT22;10145;49.152;9.282;2022-12-18T07:49:56;-8.70;99.90
19968;DHT22;10145;49.152;9.282;2022-12-18T07:52:21;-8.70;99.90
19968;DHT22;10145;49.152;9.282;2022-12-18T07:54:47;-8.80;99.90
19968;DHT22;10145;49.152;9.282;2022-12-18T07:57:15;-8.90;99.90
19968;DHT22;10145;49.152;9.282;2022-12-18T07:59:41;-8.90;99.90
19968;DHT22;10145;49.152;9.282;2022-12-18T08:02:07;-8.80;99.90
19968;DHT22;10145;49.152;9.282;2022-12-18T08:04:32;-8.60;99.90
19968;DHT22;10145;49.152;9.282;2022-12-18T08:07:01;-8.60;99.90
19968;DHT22;10145;49.152;9.282;2022-12-18T08:09:26;-8.50;99.90
19968;DHT22;10145;49.152;9.282;2022-12-18T08:11:52;-8.30;99.90
19968;DHT22;10145;49.152;9.282;2022-12-18T08:14:17;-8.20;99.90
19968;DHT22;10145;49.152;9.282;2022-12-18T08:16:43;-8.20;99.90
19968;DHT22;10145;49.152;9.282;2022-12-18T08:19:08;-8.20;99.90
19968;DHT22;10145;49.152;9.282;2022-12-18T08:21:34;-8.30;99.90
19968;DHT22;10145;49.152;9.282;2022-12-18T08:24:01;-8.20;99.90
19968;DHT22;10145;49.152;9.282;2022-12-18T08:26:29;-8.10;99.90
19968;DHT22;10145;49.152;9.282;2022-12-18T08:28:56;-8.00;99.90
19968;DHT22;10145;49.152;9.282;2022-12-18T08:31:23;-7.90;99.90
19968;DHT22;10145;49.152;9.282;2022-12-18T08:33:51;-7.90;99.90
19968;DHT22;10145;49.152;9.282;2022-12-18T08:36:17;-7.80;99.90
19968;DHT22;10145;49.152;9.282;2022-12-18T08:38:43;-7.80;99.90
19968;DHT22;10145;49.152;9.282;2022-12-18T08:41:10;-7.60;99.90
19968;DHT22;10145;49.152;9.282;2022-12-18T08:43:36;-7.60;99.90
19968;DHT22;10145;49.152;9.282;2022-12-18T08:46:27;-7.50;99.90
19968;DHT22;10145;49.152;9.282;2022-12-18T08:48:56;-7.50;99.90
19968;DHT22;10145;49.152;9.282;2022-12-18T08:51:22;-7.40;99.90
19968;DHT22;10145;49.152;9.282;2022-12-18T08:53:47;-7.40;99.90
19968;DHT22;10145;49.152;9.282;2022-12-18T08:56:14;-7.30;99.90
19968;DHT22;10145;49.152;9.282;2022-12-18T08:58:41;-7.20;99.90
19968;DHT22;10145;49.152;9.282;2022-12-18T09:01:08;-7.10;99.90
19968;DHT22;10145;49.152;9.282;2022-12-18T09:03:34;-7.10;99.90
19968;DHT22;10145;49.152;9.282;2022-12-18T09:06:00;-7.00;99.90
19968;DHT22;10145;49.152;9.282;2022-12-18T09:08:26;-6.90;99.90
19968;DHT22;10145;49.152;9.282;2022-12-18T09:10:52;-6.80;99.90
19968;DHT22;10145;49.152;9.282;2022-12-18T09:13:18;-6.80;99.90
19968;DHT22;10145;49.152;9.282;2022-12-18T09:15:45;-6.60;99.90
19968;DHT22;10145;49.152;9.282;2022-12-18T09:18:13;-6.60;99.90
19968;DHT22;10145;49.152;9.282;2022-12-18T09:20:39;-6.50;99.90
19968;DHT22;10145;49.152;9.282;2022-12-18T09:23:05;-6.40;99.90
19968;DHT22;10145;49.152;9.282;2022-12-18T09:25:32;-6.30;99.90
19968;DHT22;10145;49.152;9.282;2022-12-18T09:28:19;-6.20;99.90
19968;DHT22;10145;49.152;9.282;2022-12-18T09:30:48;-6.20;99.90
19968;DHT22;10145;49.152;9.282;2022-12-18T09:33:15;-6.00;99.90
19968;DHT22;10145;49.152;9.282;2022-12-18T09:35:42;-6.00;99.90
19968;DHT22;10145;49.152;9.282;2022-12-18T09:38:13;-5.90;99.90
19968;DHT22;10145;49.152;9.282;2022-12-18T09:40:48;-5.80;99.90
19968;DHT22;10145;49.152;9.282;2022-12-18T09:43:18;-5.70;99.90
19968;DHT22;10145;49.152;9.282;2022-12-18T09:45:48;-5.60;99.90
19968;DHT22;10145;49.152;9.282;2022-12-18T09:48:25;-5.50;99.90
19968;DHT22;10145;49.152;9.282;2022-12-18T09:50:53;-5.40;99.90
19968;DHT22;10145;49.152;9.282;2022-12-18T09:53:26;-5.40;99.90
19968;DHT22;10145;49.152;9.282;2022-12-18T09:55:58;-5.30;99.90
19968;DHT22;10145;49.152;9.282;2022-12-18T09:58:36;-5.20;99.90
19968;DHT22;10145;49.152;9.282;2022-12-18T10:01:10;-5.10;99.90
19968;DHT22;10145;49.152;9.282;2022-12-18T10:03:37;-5.00;99.90
19968;DHT22;10145;49.152;9.282;2022-12-18T10:12:02;-4.70;99.90
19968;DHT22;10145;49.152;9.282;2022-12-18T10:15:03;-4.60;99.90
19968;DHT22;10145;49.152;9.282;2022-12-18T10:20:27;-4.40;99.90
19968;DHT22;10145;49.152;9.282;2022-12-18T10:23:38;-4.30;99.90
19968;DHT22;10145;49.152;9.282;2022-12-18T10:26:08;-4.20;99.90
19968;DHT22;10145;49.152;9.282;2022-12-18T10:28:37;-4.10;99.90
19968;DHT22;10145;49.152;9.282;2022-12-18T10:31:10;-4.00;99.90
19968;DHT22;10145;49.152;9.282;2022-12-18T10:33:38;-3.90;99.90
19968;DHT22;10145;49.152;9.282;2022-12-18T10:36:03;-3.80;99.90
19968;DHT22;10145;49.152;9.282;2022-12-18T10:38:31;-3.70;99.90
19968;DHT22;10145;49.152;9.282;2022-12-18T10:51:07;-3.00;99.90
19968;DHT22;10145;49.152;9.282;2022-12-18T10:53:34;-2.90;99.90
19968;DHT22;10145;49.152;9.282;2022-12-18T10:56:00;-2.80;99.90
19968;DHT22;10145;49.152;9.282;2022-12-18T10:58:34;-2.80;99.90
19968;DHT22;10145;49.152;9.282;2022-12-18T11:01:14;-2.50;99.90
19968;DHT22;10145;49.152;9.282;2022-12-18T11:04:08;-2.40;99.90
19968;DHT22;10145;49.152;9.282;2022-12-18T11:06:34;-2.20;99.90
19968;DHT22;10145;49.152;9.282;2022-12-18T11:09:22;-2.00;99.90
19968;DHT22;10145;49.152;9.282;2022-12-18T11:11:56;-1.90;99.90
19968;DHT22;10145;49.152;9.282;2022-12-18T11:14:30;-1.80;99.90
19968;DHT22;10145;49.152;9.282;2022-12-18T11:16:58;-1.70;99.90
19968;DHT22;10145;49.152;9.282;2022-12-18T11:19:39;-1.60;99.90
19968;DHT22;10145;49.152;9.282;2022-12-18T11:22:23;-1.60;99.90
19968;DHT22;10145;49.152;9.282;2022-12-18T11:25:21;-1.40;99.90
19968;DHT22;10145;49.152;9.282;2022-12-18T11:27:52;-1.40;99.90
19968;DHT22;10145;49.152;9.282;2022-12-18T11:30:30;-1.40;99.90
19968;DHT22;10145;49.152;9.282;2022-12-18T11:33:01;-1.30;99.90
19968;DHT22;10145;49.152;9.282;2022-12-18T11:38:21;-1.50;99.90
19968;DHT22;10145;49.152;9.282;2022-12-18T11:46:18;-1.40;99.90
19968;DHT22;10145;49.152;9.282;2022-12-18T11:48:59;-1.30;99.90
19968;DHT22;10145;49.152;9.282;2022-12-18T11:51:34;-1.30;99.90
19968;DHT22;10145;49.152;9.282;2022-12-18T11:54:12;-1.30;99.90
19968;DHT22;10145;49.152;9.282;2022-12-18T11:56:48;-1.20;99.90
19968;DHT22;10145;49.152;9.282;2022-12-18T11:59:47;-1.30;99.90
19968;DHT22;10145;49.152;9.282;2022-12-18T12:02:52;-1.10;99.90
19968;DHT22;10145;49.152;9.282;2022-12-18T12:05:47;-1.00;99.90
19968;DHT22;10145;49.152;9.282;2022-12-18T12:08:42;-0.80;99.90
19968;DHT22;10145;49.152;9.282;2022-12-18T12:11:26;-0.80;99.90
19968;DHT22;10145;49.152;9.282;2022-12-18T12:16:41;-0.70;99.90
19968;DHT22;10145;49.152;9.282;2022-12-18T12:19:38;-0.50;99.90
19968;DHT22;10145;49.152;9.282;2022-12-18T12:22:20;-0.40;99.90
19968;DHT22;10145;49.152;9.282;2022-12-18T12:24:59;-0.50;99.90
19968;DHT22;10145;49.152;9.282;2022-12-18T12:30:42;-0.40;99.90
19968;DHT22;10145;49.152;9.282;2022-12-18T12:36:27;-0.30;99.90
19968;DHT22;10145;49.152;9.282;2022-12-18T12:38:58;-0.10;99.90
19968;DHT22;10145;49.152;9.282;2022-12-18T12:41:31;-0.10;99.90
19968;DHT22;10145;49.152;9.282;2022-12-18T12:44:39;0.00;99.90
19968;DHT22;10145;49.152;9.282;2022-12-18T12:49:50;0.20;99.90
19968;DHT22;10145;49.152;9.282;2022-12-18T12:52:43;0.20;99.90
19968;DHT22;10145;49.152;9.282;2022-12-18T12:55:20;0.40;99.90
19968;DHT22;10145;49.152;9.282;2022-12-18T13:00:19;0.50;99.90
19968;DHT22;10145;49.152;9.282;2022-12-18T13:05:53;-0.10;99.90
19968;DHT22;10145;49.152;9.282;2022-12-18T13:08:27;-0.20;99.90
19968;DHT22;10145;49.152;9.282;2022-12-18T13:10:55;-0.10;99.90
19968;DHT22;10145;49.152;9.282;2022-12-18T13:13:54;0.00;99.90
19968;DHT22;10145;49.152;9.282;2022-12-18T13:16:24;0.00;99.90
19968;DHT22;10145;49.152;9.282;2022-12-18T13:18:51;0.00;99.90
19968;DHT22;10145;49.152;9.282;2022-12-18T13:21:25;0.20;99.90
19968;DHT22;10145;49.152;9.282;2022-12-18T13:23:52;0.20;99.90
19968;DHT22;10145;49.152;9.282;2022-12-18T13:34:25;0.30;99.90
19968;DHT22;10145;49.152;9.282;2022-12-18T13:36:52;0.20;99.90
19968;DHT22;10145;49.152;9.282;2022-12-18T13:41:45;0.30;99.90
19968;DHT22;10145;49.152;9.282;2022-12-18T13:44:32;0.30;99.90
19968;DHT22;10145;49.152;9.282;2022-12-18T13:46:58;0.20;99.90
19968;DHT22;10145;49.152;9.282;2022-12-18T13:52:03;0.20;99.90
19968;DHT22;10145;49.152;9.282;2022-12-18T13:54:40;0.30;99.90
19968;DHT22;10145;49.152;9.282;2022-12-18T13:57:26;0.20;99.90
19968;DHT22;10145;49.152;9.282;2022-12-18T13:59:52;0.10;99.90
19968;DHT22;10145;49.152;9.282;2022-12-18T14:02:26;0.10;99.90
19968;DHT22;10145;49.152;9.282;2022-12-18T14:04:52;0.10;99.90
19968;DHT22;10145;49.152;9.282;2022-12-18T14:07:21;0.10;99.90
19968;DHT22;10145;49.152;9.282;2022-12-18T14:09:53;0.00;99.90
19968;DHT22;10145;49.152;9.282;2022-12-18T14:12:30;0.00;99.90
19968;DHT22;10145;49.152;9.282;2022-12-18T14:17:57;-0.10;99.90
19968;DHT22;10145;49.152;9.282;2022-12-18T14:20:25;-0.30;99.90
19968;DHT22;10145;49.152;9.282;2022-12-18T14:22:51;-0.40;99.90
19968;DHT22;10145;49.152;9.282;2022-12-18T14:25:19;-0.50;99.90
19968;DHT22;10145;49.152;9.282;2022-12-18T14:27:52;-0.50;99.90
19968;DHT22;10145;49.152;9.282;2022-12-18T14:30:28;-0.60;99.90
19968;DHT22;10145;49.152;9.282;2022-12-18T14:33:11;-0.70;99.90
19968;DHT22;10145;49.152;9.282;2022-12-18T14:35:39;-0.80;99.90
19968;DHT22;10145;49.152;9.282;2022-12-18T14:41:10;-0.80;99.90
19968;DHT22;10145;49.152;9.282;2022-12-18T14:43:39;-0.90;99.90
19968;DHT22;10145;49.152;9.282;2022-12-18T14:46:25;-1.00;99.90
19968;DHT22;10145;49.152;9.282;2022-12-18T14:48:51;-1.00;99.90
19968;DHT22;10145;49.152;9.282;2022-12-18T14:51:21;-1.10;99.90
19968;DHT22;10145;49.152;9.282;2022-12-18T14:53:55;-1.20;99.90
19968;DHT22;10145;49.152;9.282;2022-12-18T14:58:58;-1.30;99.90
19968;DHT22;10145;49.152;9.282;2022-12-18T15:01:38;-1.50;99.90
19968;DHT22;10145;49.152;9.282;2022-12-18T15:04:05;-1.60;99.90
19968;DHT22;10145;49.152;9.282;2022-12-18T15:06:48;-1.70;99.90
19968;DHT22;10145;49.152;9.282;2022-12-18T15:09:26;-1.80;99.90
19968;DHT22;10145;49.152;9.282;2022-12-18T15:11:57;-1.90;99.90
19968;DHT22;10145;49.152;9.282;2022-12-18T15:16:55;-2.10;99.90
19968;DHT22;10145;49.152;9.282;2022-12-18T15:19:23;-2.20;99.90
19968;DHT22;10145;49.152;9.282;2022-12-18T15:21:51;-2.20;99.90
19968;DHT22;10145;49.152;9.282;2022-12-18T15:24:30;-2.30;99.90
19968;DHT22;10145;49.152;9.282;2022-12-18T15:26:56;-2.40;99.90
19968;DHT22;10145;49.152;9.282;2022-12-18T15:29:23;-2.40;99.90
19968;DHT22;10145;49.152;9.282;2022-12-18T15:31:59;-2.50;99.90
19968;DHT22;10145;49.152;9.282;2022-12-18T15:34:25;-2.60;99.90
19968;DHT22;10145;49.152;9.282;2022-12-18T15:36:51;-2.70;99.90
19968;DHT22;10145;49.152;9.282;2022-12-18T15:39:17;-2.80;99.90
19968;DHT22;10145;49.152;9.282;2022-12-18T15:41:43;-2.90;99.90
19968;DHT22;10145;49.152;9.282;2022-12-18T15:44:28;-3.00;99.90
19968;DHT22;10145;49.152;9.282;2022-12-18T15:46:54;-3.20;99.90
19968;DHT22;10145;49.152;9.282;2022-12-18T15:49:21;-3.30;99.90
19968;DHT22;10145;49.152;9.282;2022-12-18T15:51:53;-3.40;99.90
19968;DHT22;10145;49.152;9.282;2022-12-18T15:54:20;-3.50;99.90
19968;DHT22;10145;49.152;9.282;2022-12-18T15:57:04;-3.70;99.90
19968;DHT22;10145;49.152;9.282;2022-12-18T15:59:48;-3.70;99.90
19968;DHT22;10145;49.152;9.282;2022-12-18T16:02:16;-3.80;99.90
19968;DHT22;10145;49.152;9.282;2022-12-18T16:04:43;-4.00;99.90
19968;DHT22;10145;49.152;9.282;2022-12-18T16:07:09;-4.10;99.90
19968;DHT22;10145;49.152;9.282;2022-12-18T16:09:35;-4.10;99.90
19968;DHT22;10145;49.152;9.282;2022-12-18T16:12:01;-4.20;99.90
19968;DHT22;10145;49.152;9.282;2022-12-18T16:14:31;-4.20;99.90
19968;DHT22;10145;49.152;9.282;2022-12-18T16:17:02;-4.30;99.90
19968;DHT22;10145;49.152;9.282;2022-12-18T16:19:29;-4.30;99.90
19968;DHT22;10145;49.152;9.282;2022-12-18T16:21:56;-4.20;99.90
19968;DHT22;10145;49.152;9.282;2022-12-18T16:24:24;-4.30;99.90
19968;DHT22;10145;49.152;9.282;2022-12-18T16:26:51;-4.30;99.90
19968;DHT22;10145;49.152;9.282;2022-12-18T16:29:18;-4.20;99.90
19968;DHT22;10145;49.152;9.282;2022-12-18T16:31:44;-4.20;99.90
19968;DHT22;10145;49.152;9.282;2022-12-18T16:34:18;-4.30;99.90
19968;DHT22;10145;49.152;9.282;2022-12-18T16:36:50;-4.20;99.90
19968;DHT22;10145;49.152;9.282;2022-12-18T16:39:16;-4.20;99.90
19968;DHT22;10145;49.152;9.282;2022-12-18T16:41:42;-4.20;99.90
19968;DHT22;10145;49.152;9.282;2022-12-18T16:44:08;-4.20;99.90
19968;DHT22;10145;49.152;9.282;2022-12-18T16:46:34;-4.10;99.90
19968;DHT22;10145;49.152;9.282;2022-12-18T16:48:59;-4.00;99.90
19968;DHT22;10145;49.152;9.282;2022-12-18T16:51:28;-3.90;99.90
19968;DHT22;10145;49.152;9.282;2022-12-18T16:53:55;-3.90;99.90
19968;DHT22;10145;49.152;9.282;2022-12-18T16:56:22;-3.80;99.90
19968;DHT22;10145;49.152;9.282;2022-12-18T16:58:52;-3.80;99.90
19968;DHT22;10145;49.152;9.282;2022-12-18T17:01:17;-3.80;99.90
19968;DHT22;10145;49.152;9.282;2022-12-18T17:03:43;-3.70;99.90
19968;DHT22;10145;49.152;9.282;2022-12-18T17:06:09;-3.70;99.90
19968;DHT22;10145;49.152;9.282;2022-12-18T17:08:34;-3.60;99.90
19968;DHT22;10145;49.152;9.282;2022-12-18T17:11:08;-3.60;99.90
19968;DHT22;10145;49.152;9.282;2022-12-18T17:13:34;-3.60;99.90
19968;DHT22;10145;49.152;9.282;2022-12-18T17:16:07;-3.60;99.90
19968;DHT22;10145;49.152;9.282;2022-12-18T17:18:34;-3.50;99.90
19968;DHT22;10145;49.152;9.282;2022-12-18T17:21:01;-3.50;99.90
19968;DHT22;10145;49.152;9.282;2022-12-18T17:23:28;-3.40;99.90
19968;DHT22;10145;49.152;9.282;2022-12-18T17:25:58;-3.40;99.90
19968;DHT22;10145;49.152;9.282;2022-12-18T17:28:24;-3.40;99.90
19968;DHT22;10145;49.152;9.282;2022-12-18T17:30:54;-3.40;99.90
19968;DHT22;10145;49.152;9.282;2022-12-18T17:33:20;-3.30;99.90
19968;DHT22;10145;49.152;9.282;2022-12-18T17:35:46;-3.30;99.90
19968;DHT22;10145;49.152;9.282;2022-12-18T17:38:12;-3.30;99.90
19968;DHT22;10145;49.152;9.282;2022-12-18T17:40:38;-3.40;99.90
19968;DHT22;10145;49.152;9.282;2022-12-18T17:43:05;-3.30;99.90
19968;DHT22;10145;49.152;9.282;2022-12-18T17:45:37;-3.40;99.90
19968;DHT22;10145;49.152;9.282;2022-12-18T17:48:03;-3.40;99.90
19968;DHT22;10145;49.152;9.282;2022-12-18T17:50:29;-3.50;99.90
19968;DHT22;10145;49.152;9.282;2022-12-18T17:52:56;-3.50;99.90
19968;DHT22;10145;49.152;9.282;2022-12-18T17:55:22;-3.50;99.90
19968;DHT22;10145;49.152;9.282;2022-12-18T17:57:48;-3.50;99.90
19968;DHT22;10145;49.152;9.282;2022-12-18T18:00:14;-3.40;99.90
19968;DHT22;10145;49.152;9.282;2022-12-18T18:02:39;-3.50;99.90
19968;DHT22;10145;49.152;9.282;2022-12-18T18:05:05;-3.60;99.90
19968;DHT22;10145;49.152;9.282;2022-12-18T18:07:31;-3.60;99.90
19968;DHT22;10145;49.152;9.282;2022-12-18T18:09:57;-3.60;99.90
19968;DHT22;10145;49.152;9.282;2022-12-18T18:12:22;-3.60;99.90
19968;DHT22;10145;49.152;9.282;2022-12-18T18:15:07;-3.70;99.90
19968;DHT22;10145;49.152;9.282;2022-12-18T18:17:32;-3.70;99.90
19968;DHT22;10145;49.152;9.282;2022-12-18T18:19:58;-3.80;99.90
19968;DHT22;10145;49.152;9.282;2022-12-18T18:22:24;-3.80;99.90
19968;DHT22;10145;49.152;9.282;2022-12-18T18:24:49;-3.70;99.90
19968;DHT22;10145;49.152;9.282;2022-12-18T18:27:15;-3.70;99.90
19968;DHT22;10145;49.152;9.282;2022-12-18T18:29:41;-3.80;99.90
19968;DHT22;10145;49.152;9.282;2022-12-18T18:32:06;-3.70;99.90
19968;DHT22;10145;49.152;9.282;2022-12-18T18:34:32;-3.70;99.90
19968;DHT22;10145;49.152;9.282;2022-12-18T18:36:58;-3.70;99.90
19968;DHT22;10145;49.152;9.282;2022-12-18T18:39:24;-3.60;99.90
19968;DHT22;10145;49.152;9.282;2022-12-18T18:41:50;-3.50;99.90
19968;DHT22;10145;49.152;9.282;2022-12-18T18:44:17;-3.40;99.90
19968;DHT22;10145;49.152;9.282;2022-12-18T18:46:43;-3.40;99.90
19968;DHT22;10145;49.152;9.282;2022-12-18T18:49:09;-3.30;99.90
19968;DHT22;10145;49.152;9.282;2022-12-18T18:51:35;-3.30;99.90
19968;DHT22;10145;49.152;9.282;2022-12-18T18:54:01;-3.20;99.90
19968;DHT22;10145;49.152;9.282;2022-12-18T18:56:26;-3.20;99.90
19968;DHT22;10145;49.152;9.282;2022-12-18T18:58:55;-3.20;99.90
19968;DHT22;10145;49.152;9.282;2022-12-18T19:01:21;-3.20;99.90
19968;DHT22;10145;49.152;9.282;2022-12-18T19:03:48;-3.10;99.90
19968;DHT22;10145;49.152;9.282;2022-12-18T19:06:17;-3.20;99.90
19968;DHT22;10145;49.152;9.282;2022-12-18T19:08:43;-3.10;99.90
19968;DHT22;10145;49.152;9.282;2022-12-18T19:11:09;-3.10;99.90
19968;DHT22;10145;49.152;9.282;2022-12-18T19:13:54;-3.10;99.90
19968;DHT22;10145;49.152;9.282;2022-12-18T19:16:20;-3.00;99.90
19968;DHT22;10145;49.152;9.282;2022-12-18T19:18:46;-3.00;99.90
19968;DHT22;10145;49.152;9.282;2022-12-18T19:21:11;-2.90;99.90
19968;DHT22;10145;49.152;9.282;2022-12-18T19:23:38;-2.80;99.90
19968;DHT22;10145;49.152;9.282;2022-12-18T19:26:05;-2.80;99.90
19968;DHT22;10145;49.152;9.282;2022-12-18T19:28:30;-2.80;99.90
19968;DHT22;10145;49.152;9.282;2022-12-18T19:31:02;-2.80;99.90
19968;DHT22;10145;49.152;9.282;2022-12-18T19:33:30;-2.80;99.90
19968;DHT22;10145;49.152;9.282;2022-12-18T19:35:56;-2.80;99.90
19968;DHT22;10145;49.152;9.282;2022-12-18T19:38:21;-2.80;99.90
19968;DHT22;10145;49.152;9.282;2022-12-18T19:40:47;-2.90;99.90
19968;DHT22;10145;49.152;9.282;2022-12-18T19:43:13;-2.90;99.90
19968;DHT22;10145;49.152;9.282;2022-12-18T19:45:39;-2.90;99.90
19968;DHT22;10145;49.152;9.282;2022-12-18T19:48:05;-2.90;99.90
19968;DHT22;10145;49.152;9.282;2022-12-18T19:50:31;-2.90;99.90
19968;DHT22;10145;49.152;9.282;2022-12-18T19:52:57;-3.00;99.90
19968;DHT22;10145;49.152;9.282;2022-12-18T19:55:23;-3.00;99.90
19968;DHT22;10145;49.152;9.282;2022-12-18T19:57:49;-3.00;99.90
19968;DHT22;10145;49.152;9.282;2022-12-18T20:00:14;-3.00;99.90
19968;DHT22;10145;49.152;9.282;2022-12-18T20:02:41;-3.00;99.90
19968;DHT22;10145;49.152;9.282;2022-12-18T20:05:09;-3.00;99.90
19968;DHT22;10145;49.152;9.282;2022-12-18T20:07:36;-3.00;99.90
19968;DHT22;10145;49.152;9.282;2022-12-18T20:10:04;-3.00;99.90
19968;DHT22;10145;49.152;9.282;2022-12-18T20:12:30;-2.90;99.90
19968;DHT22;10145;49.152;9.282;2022-12-18T20:14:56;-2.90;99.90
19968;DHT22;10145;49.152;9.282;2022-12-18T20:17:21;-2.90;99.90
19968;DHT22;10145;49.152;9.282;2022-12-18T20:19:47;-2.90;99.90
19968;DHT22;10145;49.152;9.282;2022-12-18T20:22:13;-2.90;99.90
19968;DHT22;10145;49.152;9.282;2022-12-18T20:24:38;-2.90;99.90
19968;DHT22;10145;49.152;9.282;2022-12-18T20:27:04;-2.80;99.90
19968;DHT22;10145;49.152;9.282;2022-12-18T20:29:29;-2.80;99.90
19968;DHT22;10145;49.152;9.282;2022-12-18T20:31:55;-2.80;99.90
19968;DHT22;10145;49.152;9.282;2022-12-18T20:34:21;-2.80;99.90
19968;DHT22;10145;49.152;9.282;2022-12-18T20:36:46;-2.70;99.90
19968;DHT22;10145;49.152;9.282;2022-12-18T20:39:12;-2.70;99.90
19968;DHT22;10145;49.152;9.282;2022-12-18T20:41:38;-2.80;99.90
19968;DHT22;10145;49.152;9.282;2022-12-18T20:44:07;-2.80;99.90
19968;DHT22;10145;49.152;9.282;2022-12-18T20:46:35;-2.80;99.90
19968;DHT22;10145;49.152;9.282;2022-12-18T20:49:01;-2.80;99.90
19968;DHT22;10145;49.152;9.282;2022-12-18T20:51:27;-2.80;99.90
19968;DHT22;10145;49.152;9.282;2022-12-18T20:53:55;-2.80;99.90
19968;DHT22;10145;49.152;9.282;2022-12-18T20:56:22;-2.80;99.90
19968;DHT22;10145;49.152;9.282;2022-12-18T20:58:50;-2.80;99.90
19968;DHT22;10145;49.152;9.282;2022-12-18T21:01:19;-2.70;99.90
19968;DHT22;10145;49.152;9.282;2022-12-18T21:03:46;-2.80;99.90
19968;DHT22;10145;49.152;9.282;2022-12-18T21:06:12;-2.80;99.90
19968;DHT22;10145;49.152;9.282;2022-12-18T21:08:39;-2.80;99.90
19968;DHT22;10145;49.152;9.282;2022-12-18T21:11:14;-2.70;99.90
19968;DHT22;10145;49.152;9.282;2022-12-18T21:14:00;-2.80;99.90
19968;DHT22;10145;49.152;9.282;2022-12-18T21:16:25;-2.80;99.90
19968;DHT22;10145;49.152;9.282;2022-12-18T21:18:51;-2.80;99.90
19968;DHT22;10145;49.152;9.282;2022-12-18T21:21:17;-2.70;99.90
19968;DHT22;10145;49.152;9.282;2022-12-18T21:23:42;-2.80;99.90